Date,TemperatureHighF,TemperatureAvgF,TemperatureLowF,DewpointHighF,DewpointAvgF,DewpointLowF,HumidityHigh,HumidityAvg,HumidityLow,PressureMaxIn,PressureMinIn,WindSpeedMaxMPH,WindSpeedAvgMPH,GustSpeedMaxMPH,PrecipitationSumIn
2013-1-1,76.2,73.3,70.2,63.0,59.6,56.0,76,63,56,30.20,30.06,10,3,21,0.00
2013-1-2,77.6,72.3,65.7,68.0,64.9,62.0,90,78,66,30.10,30.00,8,0,13,0.00
2013-1-3,80.4,73.7,68.2,68.0,66.6,65.0,91,79,63,30.14,30.03,6,1,15,0.00
2013-1-4,79.5,73.0,67.2,71.0,68.3,65.0,94,85,68,30.23,30.11,8,1,11,0.00
2013-1-5,76.2,71.1,67.5,70.0,67.9,66.0,95,89,77,30.26,30.16,11,3,12,0.06
2013-1-6,78.9,75.0,69.0,71.0,69.8,67.0,93,84,74,30.20,30.07,12,3,17,0.22
2013-1-7,76.2,71.8,68.8,70.0,68.1,65.0,95,88,71,30.18,30.08,6,2,13,0.19
2013-1-8,80.0,76.9,71.9,73.0,71.3,69.0,91,82,74,30.21,30.08,16,5,21,0.00
2013-1-9,79.7,77.6,76.0,71.0,70.5,68.0,82,78,74,30.28,30.16,18,8,25,0.00
2013-1-10,78.5,76.5,74.8,69.0,66.1,63.0,77,70,60,30.30,30.18,21,8,25,0.00
2013-1-11,78.7,76.0,74.5,70.0,67.2,65.0,83,74,67,30.26,30.16,16,7,22,0.07
2013-1-12,78.5,75.7,73.9,69.0,66.2,63.0,80,73,66,30.19,30.10,11,4,19,0.00
2013-1-13,78.0,75.1,72.7,68.0,64.6,61.0,85,70,62,30.14,30.08,18,6,21,0.02
2013-1-14,78.0,75.0,72.6,65.0,62.8,60.0,73,66,56,30.18,30.12,12,2,18,0.00
2013-1-15,77.5,74.8,73.1,67.0,65.5,62.0,79,73,67,30.14,30.05,15,4,18,0.00
2013-1-16,78.7,74.3,68.5,70.0,66.7,62.0,91,77,67,30.11,30.02,12,2,19,0.37
2013-1-17,78.7,71.1,60.8,72.0,66.0,52.0,95,84,69,30.10,29.98,14,2,20,0.09
2013-1-18,71.0,62.8,53.5,60.0,52.1,46.0,77,68,58,30.24,30.10,13,3,18,0.00
2013-1-19,71.2,68.0,63.3,68.0,63.4,56.0,96,86,60,30.22,30.10,13,2,14,0.42
2013-1-20,78.7,70.5,64.1,68.0,54.0,-99.9,97,69,27,30.16,30.02,8,0,13,0.02
2013-1-21,78.2,72.0,68.0,71.0,67.4,64.0,94,86,70,30.07,29.97,8,2,15,0.70
2013-1-22,75.0,68.7,63.1,64.0,58.9,52.0,92,72,54,30.21,30.02,16,5,21,0.00
2013-1-23,72.0,68.9,62.0,57.0,52.9,49.0,79,58,49,30.30,30.20,12,3,24,0.00
2013-1-24,72.7,65.5,58.5,56.0,53.3,50.0,86,66,51,30.30,30.19,14,3,16,0.00
2013-1-25,74.1,66.9,59.7,59.0,54.5,50.0,81,66,48,30.29,30.18,10,2,17,0.00
2013-1-26,75.0,68.3,59.7,62.0,58.1,51.0,89,71,54,30.25,30.16,11,2,18,0.00
2013-1-27,75.5,72.1,64.7,64.0,61.7,59.0,88,70,58,30.28,30.20,19,4,23,0.00
2013-1-28,77.5,74.7,72.7,66.0,63.3,61.0,76,68,57,30.33,30.23,16,6,24,0.00
2013-1-29,77.6,75.0,73.1,68.0,66.2,63.0,81,74,69,30.24,30.13,16,5,21,0.00
2013-1-30,77.8,74.7,72.4,68.0,65.2,63.0,84,73,65,30.13,29.98,12,3,23,0.00
2013-1-31,73.9,67.7,60.9,72.0,59.7,38.0,94,76,43,30.18,29.96,14,2,19,0.01
2013-2-1,70.8,63.1,53.5,54.0,47.4,38.0,70,57,44,30.27,30.16,15,5,23,0.00
2013-2-2,70.7,64.8,56.9,55.0,48.8,36.0,72,57,44,30.26,30.12,13,2,18,0.00
2013-2-3,72.0,64.9,57.1,55.0,49.4,42.0,87,60,36,30.17,30.07,12,2,18,0.00
2013-2-4,72.0,63.3,52.8,55.0,47.5,38.0,78,58,33,30.15,30.04,13,1,16,0.00
2013-2-5,75.3,67.6,57.1,63.0,57.9,53.0,90,72,55,30.09,30.01,9,1,16,0.00
2013-2-6,76.9,71.1,63.1,65.0,62.8,61.0,93,76,63,30.12,30.03,10,3,16,0.00
2013-2-7,77.5,74.2,70.8,65.0,63.5,61.0,82,70,59,30.09,29.95,10,2,17,0.00
2013-2-8,82.3,75.1,70.0,71.0,68.1,65.0,92,80,60,30.04,29.93,15,2,16,0.00
2013-2-9,76.2,70.6,63.9,68.0,62.0,57.0,95,75,65,30.18,30.02,17,4,27,0.00
2013-2-10,74.8,72.5,71.0,64.0,60.9,57.0,76,67,59,30.26,30.15,20,7,26,0.01
2013-2-11,76.6,73.5,71.0,65.0,63.2,61.0,75,70,65,30.23,30.12,13,4,20,0.00
2013-2-12,81.7,75.2,69.3,69.0,66.4,64.0,87,75,56,30.13,29.98,13,2,17,0.00
2013-2-13,81.9,76.3,71.2,71.0,69.8,68.0,93,81,66,30.02,29.91,11,2,21,0.00
2013-2-14,82.7,73.1,63.1,72.0,68.2,62.0,95,85,59,30.02,29.86,15,3,25,0.63
2013-2-15,71.7,66.8,63.3,67.0,-25.0,-99.9,96,36,27,30.02,29.95,8,2,13,0.99
2013-2-16,75.0,65.6,55.3,63.0,-9.2,-99.9,90,35,27,30.09,29.89,13,4,25,0.01
2013-2-17,56.4,51.6,46.0,45.0,27.2,15.0,71,42,23,30.31,30.09,23,5,30,0.00
2013-2-18,68.5,59.6,48.2,56.0,44.2,34.0,66,57,49,30.32,30.21,16,6,26,0.00
2013-2-19,75.0,71.4,68.0,66.0,61.0,54.0,89,70,60,30.21,30.10,16,3,22,0.00
2013-2-20,75.3,70.7,66.3,67.0,64.3,56.0,93,81,52,30.12,30.02,16,2,18,0.00
2013-2-21,78.0,74.4,71.0,67.0,65.4,64.0,84,74,64,30.10,30.01,11,2,17,0.00
2013-2-22,79.3,75.9,73.4,71.0,69.5,67.0,86,81,73,30.11,30.02,15,5,22,0.00
2013-2-23,81.0,76.9,73.6,72.0,70.1,68.0,89,79,70,30.05,29.93,9,3,19,0.00
2013-2-24,84.8,77.3,71.9,75.0,71.0,69.0,96,81,61,30.00,29.90,10,1,18,0.00
2013-2-25,81.5,76.8,71.9,73.0,70.4,68.0,93,81,69,29.92,29.82,16,2,23,0.00
2013-2-26,82.5,79.1,75.9,74.0,70.9,69.0,88,76,63,29.91,29.80,16,4,26,0.00
2013-2-27,76.9,71.5,66.3,73.0,66.7,62.0,94,85,63,29.97,29.87,9,1,14,0.39
2013-2-28,69.7,65.5,60.6,65.0,53.6,48.0,94,67,48,30.01,29.91,10,2,17,0.00
2013-3-1,65.9,62.7,59.1,57.0,50.6,46.0,82,65,56,30.00,29.91,11,2,19,0.01
2013-3-2,65.1,58.1,53.5,46.0,41.1,35.0,66,54,40,30.05,29.95,11,3,25,0.00
2013-3-3,62.6,55.5,50.7,45.0,41.4,39.0,77,60,43,30.14,29.97,12,4,23,0.00
2013-3-4,63.4,54.5,44.2,43.0,37.1,28.0,72,54,28,30.21,30.12,15,2,22,0.00
2013-3-5,71.5,63.6,52.4,56.0,51.5,42.0,85,66,53,30.18,30.09,9,1,17,0.00
2013-3-6,77.6,66.9,54.0,64.0,51.1,29.0,88,60,25,30.10,29.95,14,4,23,0.00
2013-3-7,67.8,58.5,48.1,54.0,42.1,35.0,82,56,34,30.18,30.07,13,2,19,0.00
2013-3-8,72.2,63.9,54.9,54.0,50.1,42.0,89,63,34,30.20,30.10,9,2,14,0.00
2013-3-9,72.2,65.3,55.6,56.0,52.5,49.0,85,64,54,30.19,30.11,13,2,22,0.00
2013-3-10,73.1,69.9,67.0,60.0,54.0,50.0,67,57,52,30.16,30.07,20,6,23,0.00
2013-3-11,75.0,72.2,69.7,61.0,59.1,56.0,69,64,56,30.11,29.96,16,5,22,0.00
2013-3-12,79.5,74.6,71.5,68.0,64.8,60.0,79,71,64,30.01,29.93,14,3,22,0.00
2013-3-13,74.8,67.2,57.7,65.0,54.9,46.0,89,67,40,30.13,29.98,13,3,19,0.00
2013-3-14,69.3,61.8,55.6,52.0,44.7,30.0,81,56,23,30.20,30.10,17,5,22,0.00
2013-3-15,69.5,62.6,54.4,52.0,47.6,41.0,75,59,46,30.25,30.15,11,3,22,0.00
2013-3-16,71.7,66.4,57.4,55.0,52.5,50.0,85,62,50,30.19,30.10,9,1,19,0.00
2013-3-17,74.5,68.5,60.0,60.0,56.9,55.0,85,68,54,30.16,30.04,11,2,18,0.00
2013-3-18,76.7,72.8,68.7,70.0,65.0,60.0,92,77,68,30.09,29.98,14,2,21,0.07
2013-3-19,79.1,73.0,69.5,71.0,67.5,63.0,95,84,59,30.02,29.86,11,1,18,0.03
2013-3-20,79.5,72.8,65.7,70.0,64.7,56.0,95,77,50,29.98,29.80,14,2,24,0.00
2013-3-21,73.4,67.6,63.4,61.0,54.0,43.0,90,64,37,29.95,29.84,9,2,15,0.00
2013-3-22,74.8,70.3,61.5,70.0,60.5,53.0,89,72,56,30.01,29.90,18,2,18,0.00
2013-3-23,84.2,77.8,72.9,74.0,71.2,69.0,95,81,61,30.00,29.82,12,2,22,0.01
2013-3-24,88.7,80.6,75.0,74.0,71.3,68.0,94,75,52,29.89,29.70,25,6,34,0.00
2013-3-25,77.8,74.7,66.0,73.0,58.5,36.0,92,61,28,29.99,29.75,14,5,18,0.06
2013-3-26,65.9,60.9,53.1,44.0,35.2,28.0,61,39,26,30.21,29.99,16,6,26,0.00
2013-3-27,67.0,56.5,47.0,46.0,39.8,34.0,68,55,35,30.24,30.16,11,3,18,0.00
2013-3-28,69.0,61.9,53.2,48.0,43.1,35.0,68,52,34,30.26,30.17,14,3,18,0.00
2013-3-29,71.7,65.5,58.6,52.0,47.9,40.0,64,54,45,30.29,30.21,17,4,23,0.00
2013-3-30,72.6,68.4,64.4,54.0,51.1,46.0,63,54,40,30.27,30.17,13,3,21,0.00
2013-3-31,77.8,72.8,68.2,66.0,60.9,53.0,79,67,57,30.20,30.06,14,3,21,0.00
2013-4-1,84.6,75.9,71.9,70.0,66.3,59.0,86,73,43,30.07,29.96,10,2,20,0.00
2013-4-2,79.8,72.3,66.5,68.0,64.4,61.0,95,77,53,30.09,30.00,14,2,16,0.00
2013-4-3,79.5,76.0,72.2,70.0,67.5,66.0,82,75,67,30.07,30.00,16,4,21,0.00
2013-4-4,82.1,75.3,68.7,72.0,69.2,66.0,95,82,70,30.05,29.92,12,4,27,0.56
2013-4-5,74.3,68.7,66.2,71.0,66.0,63.0,95,91,79,29.99,29.83,13,2,23,1.36
2013-4-6,75.7,68.9,59.8,65.0,60.2,57.0,95,75,60,30.09,29.93,14,4,22,0.00
2013-4-7,73.9,72.7,69.2,66.0,62.8,61.0,89,71,65,30.15,30.03,14,4,22,0.22
2013-4-8,78.4,73.9,69.0,64.0,60.4,58.0,74,63,53,30.14,30.05,13,3,19,0.00
2013-4-9,78.2,75.4,73.4,69.0,65.6,64.0,85,72,66,30.16,30.05,18,6,22,0.06
2013-4-10,81.1,77.2,74.1,72.0,69.5,66.0,83,77,69,30.11,30.00,19,6,22,0.00
2013-4-11,80.6,78.1,75.9,73.0,70.9,69.0,85,78,71,30.02,29.91,17,5,23,0.00
2013-4-12,83.7,80.2,77.6,76.0,73.5,72.0,90,80,69,29.96,29.87,15,3,23,0.11
2013-4-13,83.5,78.7,74.5,75.0,72.4,70.0,91,81,67,29.99,29.89,8,2,16,0.48
2013-4-14,82.7,79.5,76.2,74.0,73.2,70.0,91,81,67,29.98,29.90,16,3,22,0.00
2013-4-15,85.0,78.6,72.9,77.0,73.4,68.0,92,84,67,30.06,29.93,24,2,24,0.43
2013-4-16,82.7,78.5,73.8,76.0,72.4,67.0,94,82,72,30.12,30.02,14,3,23,0.00
2013-4-17,80.8,78.4,76.7,72.0,69.7,68.0,83,75,67,30.11,30.02,18,3,24,0.00
2013-4-18,83.1,79.8,76.9,73.0,70.2,68.0,79,73,66,30.06,29.98,18,4,21,0.00
2013-4-19,83.7,80.7,78.0,74.0,71.5,68.0,82,74,62,30.05,29.97,14,4,22,0.00
2013-4-20,85.8,78.8,71.9,75.0,73.0,68.0,93,82,58,30.08,29.95,12,2,27,0.79
2013-4-21,81.1,76.6,73.1,74.0,71.9,67.0,95,86,66,30.10,29.99,15,3,23,0.03
2013-4-22,80.8,74.6,70.2,74.0,69.9,68.0,94,86,69,30.05,29.93,11,2,17,0.40
2013-4-23,80.6,75.0,68.7,70.0,65.8,61.0,95,75,59,30.09,29.95,17,4,26,0.01
2013-4-24,79.8,76.7,73.8,66.0,62.6,60.0,66,62,58,30.13,30.04,16,4,22,0.00
2013-4-25,78.9,76.0,73.2,62.0,60.0,58.0,66,58,50,30.19,30.08,12,2,21,0.00
2013-4-26,78.4,75.4,71.5,64.0,62.1,60.0,69,63,58,30.22,30.11,15,3,27,0.00
2013-4-27,78.4,76.0,73.2,67.0,62.7,60.0,77,64,56,30.20,30.08,19,4,23,0.00
2013-4-28,79.5,76.7,73.9,66.0,62.9,60.0,77,63,56,30.11,30.00,22,6,24,0.01
2013-4-29,80.8,77.4,75.7,71.0,67.4,62.0,84,72,62,30.04,29.94,16,4,23,0.04
2013-4-30,81.7,76.1,71.7,73.0,69.5,67.0,92,80,66,30.01,29.93,10,1,18,0.74
2013-5-1,82.1,75.7,71.0,74.0,71.0,69.0,93,85,70,30.01,29.91,13,2,17,0.48
2013-5-2,80.0,73.9,67.7,73.0,70.0,67.0,96,88,74,29.95,29.78,21,3,32,3.73
2013-5-3,85.8,76.0,68.3,71.0,68.6,66.0,96,79,52,29.81,29.69,11,2,17,0.01
2013-5-4,87.7,78.2,69.5,70.0,66.5,64.0,93,70,45,29.81,29.69,15,4,19,0.00
2013-5-5,81.3,74.4,69.5,67.0,61.1,53.0,89,65,44,29.93,29.77,12,3,18,0.00
2013-5-6,82.3,73.2,62.5,65.0,57.9,54.0,81,60,41,30.02,29.92,12,2,14,0.00
2013-5-7,81.9,74.0,65.2,66.0,60.8,55.0,83,65,46,30.07,29.98,14,3,16,0.00
2013-5-8,84.0,74.9,64.6,67.0,60.4,54.0,85,63,37,30.14,30.05,10,2,13,0.00
2013-5-9,83.5,77.2,68.2,73.0,66.2,56.0,81,69,54,30.14,30.07,13,3,17,0.00
2013-5-10,84.8,79.6,73.1,73.0,71.2,67.0,89,76,60,30.13,30.03,13,3,19,0.09
2013-5-11,84.0,79.4,75.7,75.0,72.5,70.0,91,80,64,30.08,29.99,16,2,25,0.10
2013-5-12,86.0,79.3,73.1,74.0,71.7,66.0,95,79,60,30.07,29.96,15,2,21,0.42
2013-5-13,89.2,79.0,72.2,74.0,70.3,66.0,95,76,47,30.09,30.00,13,2,19,0.01
2013-5-14,78.4,76.7,74.8,68.0,59.9,55.0,71,57,47,30.17,30.06,15,4,26,0.00
2013-5-15,78.4,75.9,73.8,63.0,58.9,55.0,62,56,48,30.19,30.10,13,5,23,0.00
2013-5-16,80.0,76.5,73.1,64.0,60.3,57.0,65,58,49,30.12,30.04,16,4,19,0.00
2013-5-17,85.0,79.3,73.8,73.0,68.2,63.0,90,69,49,30.09,30.01,16,2,21,0.12
2013-5-18,82.5,79.2,76.0,74.0,70.9,68.0,88,76,68,30.11,30.04,15,3,24,0.28
2013-5-19,82.1,79.4,76.9,71.0,68.7,66.0,78,70,61,30.11,30.00,18,4,21,0.00
2013-5-20,80.2,76.2,71.0,75.0,72.0,69.0,95,87,73,30.07,29.97,14,2,26,2.87
2013-5-21,81.5,75.9,71.2,74.0,70.7,68.0,95,84,69,30.05,29.93,16,3,25,0.52
2013-5-22,84.2,77.7,71.2,74.0,71.9,68.0,94,82,62,29.96,29.89,10,2,17,0.80
2013-5-23,91.5,82.1,74.5,77.0,72.6,65.0,91,74,43,30.01,29.92,16,2,16,0.00
2013-5-24,89.2,81.5,75.2,76.0,72.9,68.0,91,76,49,30.06,29.95,11,2,19,0.00
2013-5-25,83.3,80.1,76.7,74.0,67.6,63.0,87,66,54,30.16,30.04,13,2,27,0.00
2013-5-26,82.1,78.9,76.4,67.0,64.7,61.0,72,62,54,30.17,30.10,15,3,25,0.00
2013-5-27,82.3,79.5,77.3,72.0,69.6,65.0,79,72,65,30.15,30.06,22,8,31,0.00
2013-5-28,81.5,77.9,74.6,74.0,71.9,70.0,94,82,72,30.10,30.04,22,8,26,1.21
2013-5-29,79.7,76.2,72.2,74.0,71.2,67.0,95,85,72,30.09,30.02,28,8,32,2.04
2013-5-30,81.1,78.7,76.9,75.0,71.4,68.0,87,78,69,30.07,30.00,25,10,33,0.07
2013-5-31,82.7,79.2,76.0,75.0,73.3,71.0,89,82,75,30.06,30.00,17,5,23,0.06
2013-6-1,83.7,78.3,75.2,76.0,74.2,73.0,94,87,74,30.03,29.95,12,2,22,0.15
2013-6-2,87.1,79.6,74.3,77.0,73.6,72.0,95,83,61,30.01,29.93,9,1,17,0.03
2013-6-3,84.8,80.3,75.3,76.0,73.5,72.0,92,80,67,30.04,29.92,8,1,14,0.00
2013-6-4,82.9,78.8,73.6,77.0,74.1,71.0,95,86,72,30.05,29.96,9,2,15,0.21
2013-6-5,83.1,81.4,80.2,77.0,75.5,74.0,86,82,79,30.03,29.90,14,5,18,0.02
2013-6-6,87.5,81.0,75.3,78.0,75.8,72.0,92,84,69,29.92,29.79,22,4,31,0.48
2013-6-7,90.4,78.8,72.6,77.0,74.5,71.0,96,87,63,30.00,29.85,14,3,22,2.72
2013-6-8,86.9,81.1,75.2,78.0,75.6,73.0,95,84,68,30.10,29.96,11,3,19,0.00
2013-6-9,85.0,82.3,80.2,76.0,74.5,73.0,86,77,69,30.11,30.04,16,6,22,0.06
2013-6-10,85.0,82.7,80.4,77.0,75.4,75.0,86,79,72,30.10,30.01,15,6,21,0.00
2013-6-11,85.8,82.6,78.5,77.0,75.7,71.0,88,80,63,30.09,30.01,10,3,15,0.14
2013-6-12,85.4,80.4,78.4,79.0,76.0,73.0,95,87,74,30.09,30.02,8,0,15,0.30
2013-6-13,87.5,80.4,76.2,78.0,74.5,70.0,95,83,61,30.07,29.95,11,1,15,0.28
2013-6-14,92.6,81.7,75.5,77.0,73.7,71.0,93,78,50,29.98,29.88,10,2,17,0.30
2013-6-15,88.1,81.9,76.2,77.0,73.9,70.0,95,78,56,30.06,29.93,13,2,14,0.00
2013-6-16,87.7,83.0,77.5,76.0,74.8,73.0,90,76,63,30.09,30.02,14,3,19,0.00
2013-6-17,87.7,84.3,80.6,76.0,74.2,72.0,81,72,62,30.08,30.01,14,3,17,0.00
2013-6-18,87.9,84.2,81.0,76.0,74.8,73.0,81,73,63,30.07,29.99,13,3,19,0.00
2013-6-19,88.1,84.0,80.4,76.0,74.8,72.0,86,74,59,30.05,29.99,14,2,19,0.00
2013-6-20,87.3,81.0,73.9,76.0,73.1,69.0,92,77,65,30.10,30.02,14,2,19,0.75
2013-6-21,86.6,83.6,80.4,75.0,72.6,70.0,79,70,59,30.12,30.03,11,3,18,0.00
2013-6-22,86.4,83.2,80.2,76.0,73.0,70.0,86,71,61,30.10,30.04,14,4,21,0.16
2013-6-23,86.9,83.2,78.5,76.0,73.0,69.0,84,72,63,30.13,30.05,16,4,22,0.09
2013-6-24,85.8,83.2,80.0,74.0,72.7,70.0,79,71,60,30.16,30.08,17,5,22,0.03
2013-6-25,86.4,83.0,81.0,76.0,73.8,71.0,85,74,65,30.12,30.04,14,5,23,0.05
2013-6-26,86.9,83.4,77.5,76.0,73.7,71.0,89,73,60,30.08,30.01,12,4,23,0.20
2013-6-27,86.9,83.1,80.8,76.0,73.8,72.0,84,74,63,30.05,29.96,11,2,15,0.03
2013-6-28,88.3,82.9,77.6,78.0,73.7,72.0,90,74,61,30.00,29.87,10,2,17,0.18
2013-6-29,87.5,81.8,77.6,78.0,75.0,72.0,89,80,66,29.93,29.85,9,1,15,0.40
2013-6-30,88.9,82.4,77.8,76.0,74.0,72.0,91,76,59,29.95,29.86,22,3,24,0.11
2013-7-1,87.3,82.2,78.4,77.0,75.3,74.0,89,80,68,30.04,29.92,13,3,25,0.12
2013-7-2,86.0,82.2,76.6,77.0,75.6,73.0,90,80,69,30.11,29.98,19,3,19,0.03
2013-7-3,86.2,82.1,78.4,77.0,74.6,71.0,88,78,69,30.13,30.05,17,5,28,0.13
2013-7-4,87.1,83.2,75.0,76.0,73.9,68.0,90,74,63,30.16,30.07,18,6,25,0.21
2013-7-5,84.8,82.0,77.3,78.0,74.5,73.0,91,78,69,30.13,30.05,17,6,31,0.17
2013-7-6,86.6,82.9,80.0,75.0,73.4,71.0,82,73,63,30.12,30.03,17,6,24,0.05
2013-7-7,85.4,83.1,81.1,76.0,73.6,72.0,84,73,68,30.10,30.02,19,7,26,0.06
2013-7-8,85.8,83.1,80.8,73.0,71.9,70.0,75,69,62,30.14,30.07,16,3,21,0.00
2013-7-9,83.3,79.8,75.7,76.0,72.2,68.0,92,78,63,30.15,30.06,14,2,22,0.13
2013-7-10,82.9,79.2,75.3,75.0,73.2,71.0,92,82,71,30.09,30.01,16,2,18,0.01
2013-7-11,88.1,83.0,79.7,75.0,73.5,69.0,85,73,59,30.05,29.95,10,2,19,0.00
2013-7-12,87.3,80.9,75.5,77.0,73.1,68.0,91,78,60,29.99,29.91,11,1,16,0.92
2013-7-13,86.6,76.4,72.0,75.0,72.4,68.0,97,88,66,30.03,29.92,12,1,22,4.86
2013-7-14,86.0,78.4,71.9,76.0,72.9,70.0,97,84,63,30.09,30.00,19,3,24,0.99
2013-7-15,85.6,80.4,74.5,76.0,72.4,69.0,95,77,62,30.09,30.02,15,3,21,0.02
2013-7-16,82.1,78.2,72.0,74.0,71.6,69.0,96,80,66,30.14,30.04,26,6,32,1.56
2013-7-17,80.6,75.8,72.6,75.0,72.9,70.0,96,91,75,30.15,30.05,16,2,29,2.71
2013-7-18,83.3,76.2,72.6,77.0,73.7,71.0,97,92,80,30.14,30.05,8,1,15,1.80
2013-7-19,86.4,81.5,74.6,78.0,76.3,73.0,97,85,70,30.14,30.05,12,3,21,0.05
2013-7-20,86.9,82.9,77.8,78.0,75.7,69.0,88,79,61,30.12,30.04,11,2,22,0.00
2013-7-21,87.1,82.9,79.3,78.0,76.2,74.0,89,80,70,30.16,30.06,12,2,16,0.00
2013-7-22,87.7,83.6,81.1,76.0,74.3,72.0,83,74,62,30.15,30.07,11,2,16,0.00
2013-7-23,88.5,82.8,78.0,78.0,74.6,72.0,91,76,63,30.11,29.98,7,1,18,0.41
2013-7-24,93.3,85.4,78.9,77.0,73.8,70.0,91,70,48,30.04,29.92,9,2,19,0.00
2013-7-25,93.5,85.5,77.3,76.0,72.9,70.0,88,67,49,30.02,29.92,12,3,14,0.00
2013-7-26,93.1,83.6,77.3,76.0,75.0,72.0,91,76,53,30.04,29.93,11,3,16,0.07
2013-7-27,84.4,79.6,76.4,79.0,75.5,73.0,95,87,79,30.02,29.94,12,1,14,0.32
2013-7-28,89.6,82.0,77.3,77.0,74.6,71.0,91,79,55,30.08,29.96,9,1,14,0.73
2013-7-29,87.9,83.3,78.5,78.0,76.0,73.0,93,79,63,30.14,30.02,13,3,19,0.00
2013-7-30,86.4,83.1,78.2,79.0,76.2,74.0,91,80,69,30.17,30.08,19,5,23,0.57
2013-7-31,87.5,84.4,81.7,76.0,74.8,72.0,81,73,63,30.12,30.01,17,5,24,0.00
2013-8-1,85.8,83.2,80.8,74.0,73.1,72.0,79,71,63,30.05,29.95,17,4,23,0.00
2013-8-2,88.7,81.9,75.3,76.0,73.6,68.0,92,77,58,30.07,29.92,8,1,18,0.19
2013-8-3,86.4,78.9,74.6,80.0,75.2,72.0,94,88,69,30.13,30.02,7,1,17,0.56
2013-8-4,90.2,82.4,76.9,78.0,75.5,72.0,94,81,57,30.12,29.99,10,1,23,0.03
2013-8-5,90.2,82.5,78.7,78.0,75.2,71.0,92,79,60,30.05,29.96,7,1,13,0.04
2013-8-6,90.9,82.9,77.3,77.0,74.7,72.0,92,77,56,29.99,29.89,10,1,19,0.00
2013-8-7,86.6,83.4,79.8,77.0,74.7,73.0,87,75,64,29.99,29.90,13,2,18,0.00
2013-8-8,88.3,84.7,82.3,76.0,74.0,70.0,79,70,62,30.02,29.92,13,5,22,0.00
2013-8-9,86.9,82.8,78.9,75.0,72.7,69.0,82,72,63,30.06,29.95,16,3,26,0.01
2013-8-10,88.1,84.6,81.7,76.0,74.6,73.0,79,72,64,30.12,30.04,14,4,22,0.00
2013-8-11,87.5,84.4,82.5,76.0,75.0,74.0,79,73,69,30.13,30.07,13,4,21,0.00
2013-8-12,86.6,84.0,81.5,75.0,73.3,70.0,77,70,60,30.11,30.01,14,2,21,0.00
2013-8-13,88.1,84.7,81.1,76.0,73.9,71.0,81,70,59,30.05,29.96,9,1,16,0.00
2013-8-14,88.5,84.5,80.8,76.0,73.6,71.0,85,70,59,30.03,29.93,10,2,18,0.00
2013-8-15,84.8,81.4,77.5,77.0,75.5,73.0,91,82,71,30.07,29.96,8,1,17,0.06
2013-8-16,88.3,84.1,79.5,78.0,76.6,74.0,92,79,63,30.06,29.98,11,2,16,0.01
2013-8-17,88.5,85.4,83.1,78.0,76.3,74.0,82,74,64,30.08,30.00,12,4,22,0.00
2013-8-18,88.5,84.6,79.8,77.0,75.5,72.0,83,74,65,30.08,29.99,18,5,26,0.01
2013-8-19,88.1,84.5,79.7,78.0,75.4,72.0,89,74,64,30.08,29.96,20,4,23,0.00
2013-8-20,87.7,84.4,81.5,76.0,74.6,73.0,80,72,63,30.06,29.98,17,6,23,0.00
2013-8-21,86.9,83.4,78.5,78.0,76.5,75.0,90,80,71,30.07,30.00,18,5,26,0.30
2013-8-22,87.5,84.4,79.1,77.0,76.0,74.0,89,76,69,30.07,29.96,19,4,24,0.05
2013-8-23,87.5,84.4,82.1,77.0,75.0,71.0,80,74,61,30.02,29.94,12,2,19,0.00
2013-8-24,88.5,84.9,81.5,76.0,74.6,71.0,80,72,59,30.11,29.97,10,2,19,0.00
2013-8-25,84.0,81.7,76.4,77.0,74.2,72.0,91,78,67,30.15,30.02,14,2,18,0.17
2013-8-26,86.0,81.9,78.4,76.0,72.9,69.0,86,74,64,30.12,30.02,23,2,23,0.04
2013-8-27,85.6,80.1,76.2,75.0,72.0,68.0,90,77,59,30.05,29.98,12,1,18,0.01
2013-8-28,85.2,81.1,74.8,75.0,73.2,70.0,91,77,61,30.05,29.95,11,2,17,0.66
2013-8-29,87.5,82.4,75.9,76.0,74.3,72.0,93,77,61,30.02,29.93,13,2,17,0.00
2013-8-30,88.7,83.4,77.8,77.0,73.1,69.0,92,72,52,30.01,29.90,11,2,16,0.00
2013-8-31,88.3,80.1,74.5,77.0,73.6,69.0,93,81,63,29.99,29.92,6,1,15,0.08
2013-9-1,86.6,81.0,76.0,78.0,75.6,73.0,95,84,69,30.01,29.93,9,1,13,0.02
2013-9-2,88.7,80.0,75.2,79.0,75.4,73.0,95,87,64,30.04,29.95,9,1,23,0.16
2013-9-3,87.7,81.1,75.2,77.0,74.9,69.0,94,82,66,30.03,29.93,11,2,13,0.00
2013-9-4,86.9,83.9,81.5,78.0,76.3,75.0,82,77,70,30.07,29.95,16,4,19,0.00
2013-9-5,87.1,83.3,75.3,79.0,76.2,69.0,93,79,70,30.07,30.00,15,3,31,0.41
2013-9-6,87.3,84.5,82.3,77.0,75.2,72.0,82,74,62,30.04,29.93,11,2,18,0.00
2013-9-7,86.2,81.4,77.1,76.0,73.5,71.0,85,77,61,29.99,29.90,12,1,20,0.00
2013-9-8,87.7,80.2,75.2,77.0,73.8,69.0,93,81,56,29.95,29.86,10,2,21,0.00
2013-9-9,86.6,82.1,76.9,77.0,74.4,73.0,92,78,65,29.99,29.90,13,3,25,0.03
2013-9-10,86.0,82.5,78.0,76.0,74.3,69.0,88,76,62,30.04,29.95,25,4,32,0.17
2013-9-11,86.4,81.8,78.0,76.0,74.2,71.0,91,78,67,30.05,29.96,15,3,25,0.38
2013-9-12,83.7,80.5,76.6,78.0,75.5,71.0,95,85,67,30.02,29.89,9,1,11,0.49
2013-9-13,89.6,83.1,76.4,77.0,73.6,69.0,94,74,55,29.90,29.81,9,2,15,0.00
2013-9-14,87.7,83.4,77.8,77.0,74.3,71.0,91,75,60,29.98,29.83,14,3,18,0.00
2013-9-15,84.0,80.9,76.7,79.0,76.1,72.0,94,85,70,30.05,29.92,22,2,26,1.10
2013-9-16,83.7,81.4,77.6,77.0,75.1,71.0,92,81,71,30.05,29.96,19,5,23,0.36
2013-9-17,83.5,79.9,74.8,78.0,74.9,72.0,95,85,78,30.02,29.92,10,2,24,1.24
2013-9-18,83.7,80.0,75.3,76.0,74.8,72.0,93,84,75,30.02,29.91,10,1,16,0.09
2013-9-19,85.8,80.4,75.3,77.0,74.0,71.0,94,81,67,30.00,29.92,11,2,23,0.08
2013-9-20,84.8,81.1,75.7,74.0,70.0,67.0,91,70,57,29.99,29.89,14,3,22,0.37
2013-9-21,84.4,80.3,75.9,75.0,73.2,71.0,93,79,65,29.92,29.78,14,1,17,0.00
2013-9-22,90.0,82.5,77.6,78.0,75.4,72.0,92,80,56,29.87,29.77,9,1,14,0.00
2013-9-23,87.5,81.2,76.6,79.0,76.3,74.0,93,85,68,29.98,29.86,7,1,26,0.20
2013-9-24,92.2,83.1,77.5,81.0,75.8,70.0,92,79,58,29.97,29.88,10,2,21,0.02
2013-9-25,91.3,80.9,76.4,79.0,75.0,71.0,92,82,63,29.92,29.82,11,2,17,0.19
2013-9-26,91.3,82.1,77.3,80.0,76.6,75.0,93,84,61,29.87,29.80,14,3,22,0.22
2013-9-27,87.1,81.1,75.5,77.0,72.8,68.0,95,77,53,29.92,29.82,8,2,19,0.00
2013-9-28,85.2,79.8,75.0,74.0,72.3,69.0,93,78,63,29.96,29.87,17,2,23,0.15
2013-9-29,84.0,79.8,74.6,75.0,70.6,66.0,95,74,56,29.97,29.88,13,1,19,0.01
2013-9-30,85.4,81.9,78.4,73.0,70.4,68.0,82,68,58,30.00,29.90,13,3,19,0.00
2013-10-1,85.2,82.5,80.6,73.0,71.6,69.0,76,70,63,30.02,29.95,16,3,23,0.00
2013-10-2,81.9,80.1,75.0,76.0,73.8,71.0,97,81,70,30.05,29.96,13,3,22,1.27
2013-10-3,83.1,79.7,75.5,76.0,73.7,72.0,94,82,70,30.05,29.95,13,2,19,0.56
2013-10-4,84.2,81.4,78.9,73.0,70.7,68.0,79,70,63,30.06,29.99,14,2,17,0.00
2013-10-5,84.4,80.7,74.1,73.0,70.8,67.0,88,72,57,30.03,29.93,10,1,16,0.00
2013-10-6,86.6,81.8,76.6,76.0,71.1,68.0,92,71,56,29.97,29.87,11,2,16,0.01
2013-10-7,91.3,81.0,74.1,75.0,72.1,69.0,94,76,53,29.90,29.81,12,2,17,0.51
2013-10-8,88.3,81.8,76.6,78.0,74.2,70.0,94,79,62,29.94,29.86,7,1,12,0.04
2013-10-9,84.2,78.8,72.9,74.0,72.2,70.0,92,80,69,29.99,29.91,11,3,19,0.00
2013-10-10,84.6,79.6,73.4,73.0,70.7,67.0,93,75,61,30.01,29.94,12,3,21,0.02
2013-10-11,83.3,78.9,72.7,70.0,67.6,65.0,88,69,57,30.01,29.94,15,2,21,0.00
2013-10-12,83.1,78.9,72.6,69.0,66.8,64.0,87,67,52,30.03,29.95,11,1,19,0.00
2013-10-13,82.9,79.2,74.1,71.0,66.1,62.0,86,65,49,30.05,29.96,12,2,19,0.00
2013-10-14,82.5,78.4,71.9,69.0,66.7,65.0,88,68,56,30.02,29.90,13,2,21,0.00
2013-10-15,83.3,78.5,72.2,71.0,68.7,66.0,92,73,60,29.95,29.87,14,2,19,0.00
2013-10-16,82.3,78.7,74.6,71.0,68.8,67.0,84,72,60,29.95,29.89,11,2,15,0.00
2013-10-17,82.9,79.3,73.4,73.0,70.3,68.0,90,74,63,29.97,29.89,11,2,16,0.00
2013-10-18,84.8,80.4,75.0,73.0,70.9,70.0,88,73,63,29.99,29.90,11,2,16,0.00
2013-10-19,85.8,82.3,78.7,74.0,71.8,70.0,78,71,60,29.96,29.88,11,2,13,0.00
2013-10-20,86.2,80.7,76.4,76.0,74.7,74.0,95,82,69,29.96,29.88,11,1,17,0.90
2013-10-21,86.6,82.1,77.6,77.0,74.8,72.0,91,79,63,30.01,29.91,12,1,15,0.00
2013-10-22,87.1,81.8,77.5,78.0,75.1,73.0,91,80,63,29.96,29.84,8,1,13,0.05
2013-10-23,86.2,80.5,76.7,78.0,73.5,68.0,93,80,63,29.95,29.82,11,2,14,0.75
2013-10-24,80.2,77.5,73.8,69.0,65.2,62.0,75,66,57,30.09,29.93,14,4,20,0.00
2013-10-25,81.0,77.0,71.4,67.0,63.0,60.0,79,63,53,30.15,30.06,16,3,24,0.00
2013-10-26,80.0,77.8,75.5,63.0,61.4,59.0,62,57,53,30.15,30.05,8,1,19,0.00
2013-10-27,80.2,74.9,68.0,64.0,62.0,60.0,78,65,52,30.10,30.02,11,1,19,0.00
2013-10-28,80.8,78.1,75.2,66.0,63.0,60.0,65,60,49,30.15,30.05,13,2,21,0.00
2013-10-29,82.1,78.6,71.2,69.0,65.8,63.0,82,65,58,30.17,30.09,17,2,30,0.00
2013-10-30,81.1,79.0,77.1,68.0,65.6,63.0,72,64,56,30.18,30.08,15,4,25,0.01
2013-10-31,83.7,80.2,78.4,72.0,68.7,64.0,76,68,61,30.11,29.99,16,3,24,0.00
2013-11-1,84.8,80.9,77.3,73.0,71.4,69.0,82,73,60,30.01,29.89,13,1,17,0.00
2013-11-2,87.9,80.0,72.9,74.0,69.6,64.0,94,73,46,29.94,29.81,12,2,17,0.00
2013-11-3,80.6,74.8,68.8,66.0,61.8,59.0,80,65,53,30.02,29.89,16,4,24,0.00
2013-11-4,80.4,77.6,75.9,67.0,62.9,55.0,70,61,44,30.07,30.00,15,2,31,0.00
2013-11-5,81.1,78.7,76.0,69.0,66.0,64.0,74,65,61,30.09,30.01,28,5,32,0.00
2013-11-8,81.5,77.0,73.8,73.0,71.7,68.0,95,84,64,30.04,29.95,15,4,27,1.36
2013-11-9,79.5,77.3,73.9,73.0,71.6,70.0,93,83,77,30.11,30.00,24,4,33,0.14
2013-11-10,81.9,79.1,77.3,72.0,69.6,67.0,84,73,66,30.11,30.04,14,2,25,0.00
2013-11-11,81.0,78.5,74.1,70.0,68.1,65.0,83,70,65,30.11,30.04,18,2,23,0.00
2013-11-12,81.3,77.6,71.7,70.0,67.6,66.0,88,72,64,30.07,29.97,14,1,18,0.00
2013-11-13,76.6,72.5,68.7,68.0,63.4,58.0,91,73,62,30.21,29.99,17,6,31,0.25
2013-11-14,75.2,73.0,70.7,63.0,57.8,54.0,68,59,55,30.24,30.13,24,3,30,0.00
2013-11-15,79.7,76.8,72.6,72.0,65.3,59.0,90,68,59,30.14,30.02,17,5,25,0.26
2013-11-16,79.3,77.8,72.6,72.0,68.1,64.0,89,72,62,30.10,30.01,18,4,21,0.14
2013-11-17,81.9,79.2,77.5,71.0,69.4,67.0,77,72,64,30.08,30.01,16,2,20,0.00
2013-11-18,82.1,78.2,73.1,72.0,69.8,68.0,91,76,65,30.03,29.92,13,1,14,0.00
2013-11-19,82.9,76.0,72.9,73.0,71.3,70.0,94,85,65,29.95,29.86,9,1,12,0.48
2013-11-20,81.5,75.8,71.7,76.0,72.5,71.0,96,89,76,30.06,29.92,7,0,12,0.49
2013-11-21,83.5,77.1,72.6,77.0,73.5,71.0,97,89,67,30.14,30.05,18,3,25,2.95
2013-11-22,81.5,78.7,74.1,75.0,72.5,71.0,96,81,73,30.14,30.06,16,4,31,1.44
2013-11-23,81.3,78.9,75.0,73.0,71.5,67.0,84,78,73,30.07,29.97,11,2,24,0.00
2013-11-24,80.6,75.2,70.3,70.0,68.1,64.0,93,79,62,30.13,29.98,19,3,33,0.32
2013-11-25,75.3,74.3,73.1,70.0,65.4,61.0,89,74,64,30.19,30.05,25,7,32,0.07
2013-11-26,81.5,78.4,73.4,76.0,73.2,70.0,91,84,79,30.05,29.84,22,6,31,0.06
2013-11-27,79.1,72.8,61.2,76.0,65.2,54.0,97,79,52,30.12,29.80,16,3,30,1.30
2013-11-28,73.2,64.2,50.4,61.0,53.5,47.0,87,70,51,30.24,30.11,15,3,23,0.00
2013-11-29,76.0,71.2,62.6,64.0,59.3,55.0,87,67,53,30.27,30.18,11,2,24,0.00
2013-11-30,78.4,71.8,62.8,69.0,63.6,60.0,92,76,63,30.20,30.10,18,3,24,0.11
2013-12-1,75.9,69.3,63.6,71.0,66.5,61.0,97,91,68,30.10,29.95,8,1,15,1.46
2013-12-2,75.5,69.6,65.9,69.0,65.0,59.0,98,86,58,29.95,29.83,10,2,16,0.00
2013-12-3,80.0,72.7,64.2,69.0,64.7,59.0,95,77,53,30.01,29.91,11,1,12,0.00
2013-12-4,81.7,75.5,68.8,71.0,67.2,65.0,93,76,59,30.10,29.99,11,1,14,0.00
2013-12-5,82.1,78.6,75.9,72.0,69.8,68.0,78,74,68,30.17,30.08,16,4,18,0.00
2013-12-6,82.5,78.8,76.6,72.0,69.2,67.0,81,73,63,30.19,30.09,14,4,20,0.00
2013-12-7,81.3,77.8,71.4,71.0,68.9,67.0,90,74,67,30.22,30.14,15,3,24,0.01
2013-12-8,81.5,78.3,73.1,71.0,69.1,66.0,91,74,61,30.21,30.13,19,5,25,0.02
2013-12-9,81.9,79.1,77.3,70.0,68.2,66.0,78,70,58,30.20,30.11,12,3,21,0.00
2013-12-10,82.5,77.1,76.0,73.0,67.2,-99.9,87,75,67,30.16,30.09,11,1,15,0.00
2013-12-11,81.3,77.6,72.7,74.0,71.7,70.0,93,82,73,30.19,30.12,9,2,15,0.00
2013-12-12,78.9,74.0,69.8,73.0,67.2,59.0,94,80,62,30.22,30.13,15,4,23,0.00
2013-12-13,76.6,74.2,71.4,69.0,64.2,58.0,91,71,61,30.19,30.09,16,3,31,0.49
2013-12-14,81.3,78.2,75.9,72.0,70.6,68.0,83,78,72,30.11,29.99,18,3,24,0.00
2013-12-15,85.6,78.7,73.4,75.0,72.4,70.0,93,81,64,30.06,29.93,15,2,19,0.00
2013-12-16,72.6,69.0,63.4,70.0,61.1,59.0,91,76,66,30.16,30.04,11,4,17,0.00
2013-12-17,76.4,68.5,60.6,65.0,60.0,58.0,93,75,59,30.18,30.10,13,3,21,0.00
2013-12-18,75.2,67.6,61.1,60.0,57.8,54.0,92,72,54,30.23,30.14,17,4,22,0.00
2013-12-19,76.6,71.0,60.9,63.0,59.2,57.0,89,68,56,30.24,30.15,17,4,23,0.00
2013-12-20,79.7,77.2,74.5,70.0,67.1,63.0,77,71,65,30.19,30.11,19,5,23,0.00
2013-12-21,80.8,78.4,76.6,73.0,71.2,70.0,83,78,72,30.15,30.07,15,4,22,0.00
2013-12-22,81.7,79.1,77.5,73.0,71.5,70.0,84,78,69,30.16,30.09,14,6,23,0.00
2013-12-23,81.5,78.3,73.6,73.0,71.6,70.0,90,80,72,30.18,30.12,13,4,23,0.00
2013-12-24,83.9,73.8,69.3,74.0,67.9,62.0,96,82,57,30.18,30.07,15,4,21,0.00
2013-12-25,75.9,74.3,72.6,68.0,65.8,65.0,79,75,71,30.17,30.10,14,5,24,0.00
2013-12-26,78.0,76.2,74.1,71.0,69.1,67.0,83,78,73,30.17,30.07,15,3,19,0.02
2013-12-27,79.1,77.1,75.5,71.0,69.7,68.0,84,78,72,30.19,30.09,13,4,18,0.00
2013-12-28,79.8,77.7,76.2,73.0,70.5,68.0,86,78,74,30.18,30.04,18,9,24,0.00
2013-12-29,81.0,78.5,76.2,74.0,73.1,71.0,93,84,77,30.04,29.93,12,4,23,0.00
2013-12-30,80.0,75.3,70.8,74.0,71.5,68.0,96,88,73,30.14,29.98,10,3,13,0.00
2013-12-31,77.8,74.3,69.3,69.0,65.7,63.0,88,75,65,30.23,30.10,17,5,24,0.00
2014-1-1,80.8,77.7,75.0,75.0,71.6,66.0,88,81,70,30.19,30.05,16,6,19,0.23
2014-1-2,84.6,78.8,74.5,72.0,69.9,67.0,90,75,59,30.05,29.88,14,4,18,0.00